Time;durP1;ratioP1;P1;durP2;ratioP2;P2;SDS_P1;SDS_P2;PMS_P1;PMS_P2;Temp;Humidity;BMP_temperature;BMP_pressure;BME280_temperature;BME280_humidity;BME280_pressure;Samples;Min_cycle;Max_cycle;Signal;HPM_P1;HPM_P2
2023/07/10 00:03:08;;;;;;;4.85;2.65;;;;;;;20.80;100.00;101607.63;20970441;28;20045;-70
2023/07/10 00:13:11;;;;;;;4.03;3.17;;;;;;;20.76;100.00;101582.63;20984832;28;20058;-70
2023/07/10 00:23:16;;;;;;;3.83;3.15;;;;;;;20.79;100.00;101597.78;20984530;28;20072;-69
2023/07/10 00:33:19;;;;;;;4.32;3.20;;;;;;;20.78;100.00;101607.72;20980558;28;20044;-69
2023/07/10 00:43:28;;;;;;;3.58;2.90;;;;;;;20.79;100.00;101616.72;20980077;28;20456;-70
2023/07/10 00:53:34;;;;;;;4.07;2.90;;;;;;;20.78;100.00;101612.28;20966116;28;20053;-69
2023/07/10 01:03:39;;;;;;;3.58;2.90;;;;;;;20.77;100.00;101607.84;21002460;28;20044;-69
2023/07/10 01:13:42;;;;;;;3.87;3.30;;;;;;;20.77;100.00;101605.13;21017963;28;20136;-69
2023/07/10 01:23:44;;;;;;;4.63;3.27;;;;;;;20.77;100.00;101610.53;20967684;28;20598;-69
2023/07/10 01:34:01;;;;;;;3.17;2.85;;;;;;;20.76;100.00;101622.34;20976491;28;20055;-70
2023/07/10 01:44:26;;;;;;;3.70;2.90;;;;;;;20.67;100.00;101605.13;20976920;28;20103;-70
2023/07/10 01:54:27;;;;;;;5.03;3.07;;;;;;;20.74;100.00;101614.41;20981798;28;20041;-70
2023/07/10 02:04:29;;;;;;;5.45;3.30;;;;;;;20.73;100.00;101621.63;20963946;28;20074;-70
2023/07/10 02:14:31;;;;;;;3.08;2.78;;;;;;;20.72;100.00;101624.50;20970193;28;20493;-70
2023/07/10 02:24:32;;;;;;;5.03;3.05;;;;;;;20.72;100.00;101610.97;20961727;28;20106;-70
2023/07/10 02:34:34;;;;;;;3.63;3.20;;;;;;;20.72;100.00;101621.78;20984263;28;20441;-69
2023/07/10 02:44:36;;;;;;;4.68;3.80;;;;;;;20.69;100.00;101620.22;20983714;28;20501;-70
2023/07/10 02:54:38;;;;;;;4.45;3.35;;;;;;;20.68;100.00;101613.09;20982794;28;20605;-69
2023/07/10 03:04:39;;;;;;;4.45;3.83;;;;;;;20.68;100.00;101631.19;21058998;28;20105;-69
2023/07/10 03:14:41;;;;;;;4.70;3.80;;;;;;;20.66;100.00;101630.47;21070678;28;20567;-69
2023/07/10 03:24:43;;;;;;;5.15;3.92;;;;;;;20.65;100.00;101645.81;21065620;28;20069;-69
2023/07/10 03:34:44;;;;;;;4.35;3.60;;;;;;;20.65;100.00;101667.47;21082435;28;20055;-69
2023/07/10 03:44:46;;;;;;;4.45;4.05;;;;;;;20.64;100.00;101638.69;21081482;28;20153;-69
2023/07/10 03:54:48;;;;;;;5.00;3.65;;;;;;;20.64;100.00;101670.31;21073510;28;20045;-69
2023/07/10 04:04:49;;;;;;;5.35;4.20;;;;;;;20.63;100.00;101680.28;21030556;28;20045;-70
2023/07/10 04:14:51;;;;;;;4.85;3.97;;;;;;;20.62;100.00;101667.75;20994821;28;20127;-70
2023/07/10 04:24:52;;;;;;;4.40;4.00;;;;;;;20.65;100.00;101672.03;20934494;28;20045;-69
2023/07/10 04:34:54;;;;;;;4.50;4.10;;;;;;;20.67;100.00;101670.91;20942811;28;20045;-69
2023/07/10 04:44:56;;;;;;;5.18;4.18;;;;;;;20.67;100.00;101679.00;20972310;28;20571;-70
2023/07/10 04:54:57;;;;;;;5.25;4.22;;;;;;;20.68;100.00;101688.84;20995216;28;20044;-69
2023/07/10 05:04:59;;;;;;;4.88;4.38;;;;;;;20.67;100.00;101692.53;21075185;28;20810;-69
2023/07/10 05:15:01;;;;;;;5.45;4.07;;;;;;;20.67;100.00;101699.81;21067868;28;20078;-69
2023/07/10 05:25:03;;;;;;;4.45;3.85;;;;;;;20.65;100.00;101694.53;20950712;28;20045;-69
2023/07/10 05:35:05;;;;;;;4.50;3.60;;;;;;;20.62;100.00;101702.91;20925910;28;20072;-70
2023/07/10 05:45:07;;;;;;;3.88;3.47;;;;;;;20.65;100.00;101710.75;20905961;28;20128;-70
2023/07/10 05:55:08;;;;;;;4.47;3.17;;;;;;;20.68;100.00;101710.47;20917048;28;20057;-70
2023/07/10 06:05:10;;;;;;;5.93;3.28;;;;;;;20.71;100.00;101698.56;20929247;28;20058;-70
2023/07/10 06:15:12;;;;;;;4.70;3.10;;;;;;;20.75;100.00;101705.41;20936450;28;20083;-70
2023/07/10 06:25:15;;;;;;;5.18;2.70;;;;;;;20.78;100.00;101720.53;20945197;28;20040;-70
2023/07/10 06:35:17;;;;;;;3.72;2.20;;;;;;;20.82;100.00;101727.41;20958906;28;20139;-71
2023/07/10 06:45:19;;;;;;;2.92;2.05;;;;;;;20.88;100.00;101731.41;20917488;28;20045;-71
2023/07/10 06:55:21;;;;;;;2.33;2.13;;;;;;;20.97;100.00;101747.69;20908068;28;20110;-71
2023/07/10 07:05:22;;;;;;;5.32;2.20;;;;;;;21.05;100.00;101738.91;20906344;28;20045;-71
2023/07/10 07:15:24;;;;;;;3.05;2.15;;;;;;;21.14;100.00;101735.34;20896916;28;20045;-71
2023/07/10 07:25:28;;;;;;;4.07;2.08;;;;;;;21.13;100.00;101722.81;20883856;28;20048;-72
2023/07/10 07:35:30;;;;;;;3.37;1.80;;;;;;;21.31;100.00;101727.56;20935686;28;20045;-72
2023/07/10 07:45:32;;;;;;;3.30;1.42;;;;;;;21.22;100.00;101728.38;20908533;28;20365;-72
2023/07/10 07:55:34;;;;;;;1.83;1.40;;;;;;;21.19;100.00;101734.91;20913983;28;20052;-71
2023/07/10 08:05:36;;;;;;;3.25;1.45;;;;;;;21.23;100.00;101736.38;20932174;28;20067;-72
2023/07/10 08:15:38;;;;;;;2.67;1.40;;;;;;;21.36;100.00;101730.69;20929511;28;20509;-71
2023/07/10 08:25:40;;;;;;;2.72;1.40;;;;;;;22.17;100.00;101737.78;20922632;28;20052;-71
2023/07/10 08:35:42;;;;;;;2.25;1.00;;;;;;;23.61;90.67;101727.63;20927587;28;21059;-72
2023/07/10 08:45:46;;;;;;;2.93;1.03;;;;;;;24.92;82.55;101745.16;20930160;28;20048;-72
2023/07/10 08:56:16;;;;;;;1.73;0.75;;;;;;;26.10;75.64;101745.28;20900199;28;20040;-72
2023/07/10 09:06:20;;;;;;;2.28;1.20;;;;;;;25.01;77.72;101736.00;20925792;28;20463;-69
2023/07/10 09:16:21;;;;;;;2.03;1.05;;;;;;;23.73;83.52;101737.28;20910226;28;20052;-70
2023/07/10 09:26:38;;;;;;;2.78;1.40;;;;;;;22.96;88.25;101753.84;20926768;28;20083;-70
2023/07/10 09:36:40;;;;;;;3.05;1.13;;;;;;;22.51;90.10;101746.44;20927326;28;20082;-70
2023/07/10 09:46:42;;;;;;;2.10;0.77;;;;;;;22.36;93.69;101746.03;20905017;28;20180;-70
2023/07/10 09:56:46;;;;;;;3.65;1.23;;;;;;;22.20;95.14;101733.91;20911657;28;20056;-70
2023/07/10 10:06:56;;;;;;;2.30;1.27;;;;;;;22.26;95.58;101729.75;20917947;28;20541;-70
2023/07/10 10:17:02;;;;;;;2.67;1.00;;;;;;;22.22;93.83;101731.06;20918568;28;20048;-71
2023/07/10 10:27:38;;;;;;;1.85;1.33;;;;;;;22.17;94.21;101737.78;20927347;28;20098;-70
2023/07/10 10:37:58;;;;;;;2.60;1.10;;;;;;;22.14;93.83;101743.50;20932181;28;20076;-70
2023/07/10 10:48:28;;;;;;;1.65;1.10;;;;;;;22.11;93.18;101753.75;20943786;28;20076;-70
2023/07/10 10:58:52;;;;;;;2.58;1.10;;;;;;;22.10;94.48;101760.19;20917255;28;20049;-70
2023/07/10 11:08:57;;;;;;;3.43;1.23;;;;;;;22.07;93.84;101752.34;20929425;28;20041;-70
2023/07/10 11:18:59;;;;;;;3.50;1.20;;;;;;;22.02;93.86;101753.63;20932065;28;20068;-70
2023/07/10 11:29:17;;;;;;;2.25;1.10;;;;;;;22.00;95.57;101744.78;20925919;28;20128;-69
2023/07/10 11:39:26;;;;;;;1.63;0.98;;;;;;;21.99;98.88;101744.91;20938627;28;20078;-70
2023/07/10 11:49:42;;;;;;;2.83;1.00;;;;;;;22.04;98.41;101761.59;20947716;28;20049;-71
2023/07/10 11:59:50;;;;;;;1.45;0.95;;;;;;;22.04;95.51;101782.44;20936387;28;20457;-69
2023/07/10 12:09:52;;;;;;;1.83;1.10;;;;;;;22.02;98.57;101769.88;20938017;28;20053;-69
2023/07/10 12:19:54;;;;;;;4.13;1.23;;;;;;;22.04;96.21;101777.88;20929546;28;20079;-69
2023/07/10 12:29:56;;;;;;;1.92;0.98;;;;;;;22.06;93.62;101792.13;20927074;28;20139;-69
2023/07/10 12:39:57;;;;;;;1.08;0.80;;;;;;;22.08;95.26;101794.72;20936432;28;20045;-70
2023/07/10 12:49:59;;;;;;;3.35;1.30;;;;;;;22.08;95.40;101790.13;20936432;28;20383;-70
2023/07/10 13:00:08;;;;;;;2.70;1.10;;;;;;;22.08;96.61;101794.72;20939532;28;20136;-68
2023/07/10 13:10:13;;;;;;;2.47;0.90;;;;;;;22.06;97.57;101794.84;20924518;28;20059;-70
2023/07/10 13:20:21;;;;;;;;;;;;;;;22.02;97.75;101809.69;20937365;28;20121;-70
2023/07/10 13:30:24;;;;;;;7.35;1.48;;;;;;;21.98;95.71;101811.84;20941199;28;19924;-65
2023/07/10 13:40:25;;;;;;;3.97;1.27;;;;;;;22.14;91.34;101807.72;20937134;28;20056;-64
2023/07/10 13:50:27;;;;;;;5.43;1.00;;;;;;;22.20;89.99;101796.28;20932821;28;20080;-64
2023/07/10 14:00:29;;;;;;;3.42;1.00;;;;;;;22.20;90.80;101790.00;20929932;28;20045;-64
2023/07/10 14:10:31;;;;;;;3.20;1.25;;;;;;;22.14;87.46;101797.72;20945357;28;20048;-65
2023/07/10 14:20:32;;;;;;;2.17;1.00;;;;;;;22.09;86.93;101802.69;20923317;28;20143;-65
2023/07/10 14:30:34;;;;;;;2.90;1.20;;;;;;;22.07;85.00;101791.13;20922923;28;20071;-65
2023/07/10 14:40:36;;;;;;;3.83;1.25;;;;;;;22.07;85.25;101787.59;20913102;28;20063;-65
2023/07/10 14:50:37;;;;;;;1.83;0.93;;;;;;;22.06;85.67;101781.28;20902942;28;20048;-65
2023/07/10 15:00:39;;;;;;;1.65;0.90;;;;;;;22.05;85.08;101767.91;20922301;28;20067;-64
2023/07/10 15:10:41;;;;;;;3.00;0.93;;;;;;;22.05;85.04;101762.47;20909380;28;20508;-64
2023/07/10 15:20:43;;;;;;;1.67;0.88;;;;;;;22.04;84.92;101747.19;20893498;28;20139;-65
2023/07/10 15:30:54;;;;;;;2.13;0.90;;;;;;;21.93;84.41;101726.50;20918438;28;20057;-66
2023/07/10 15:40:58;;;;;;;5.22;2.35;;;;;;;22.02;85.71;101742.78;20922852;28;20048;-65
2023/07/10 15:51:00;;;;;;;20.02;8.07;;;;;;;22.07;87.18;101750.47;20920560;28;20059;-65
2023/07/10 16:01:02;;;;;;;33.92;10.35;;;;;;;22.12;86.83;101731.94;20934995;28;20383;-65
2023/07/10 16:11:19;;;;;;;28.10;9.38;;;;;;;22.11;85.46;101718.50;20935323;28;20558;-65
2023/07/10 16:21:22;;;;;;;26.45;9.05;;;;;;;22.10;84.41;101717.66;20922069;28;20057;-64
2023/07/10 16:31:28;;;;;;;15.73;6.43;;;;;;;22.05;83.35;101703.66;20963019;28;20049;-65
2023/07/10 16:41:30;;;;;;;14.88;5.70;;;;;;;21.96;81.12;101699.97;21004250;28;20074;-65
2023/07/10 16:51:32;;;;;;;14.75;4.85;;;;;;;21.81;79.10;101688.72;21075870;28;20101;-65
2023/07/10 17:01:33;;;;;;;10.63;5.43;;;;;;;21.86;78.50;101683.72;21076513;28;20048;-65
2023/07/10 17:11:37;;;;;;;9.45;3.75;;;;;;;21.75;77.50;101677.56;21074802;28;20390;-65
2023/07/10 17:21:39;;;;;;;8.98;3.88;;;;;;;21.77;76.79;101694.56;21072615;28;20467;-65
2023/07/10 17:31:41;;;;;;;8.38;3.10;;;;;;;21.73;77.11;101678.56;21073332;28;20052;-65
2023/07/10 17:41:43;;;;;;;7.82;3.38;;;;;;;21.70;76.22;101678.03;21068857;28;20052;-65
2023/07/10 17:51:45;;;;;;;6.07;2.60;;;;;;;21.68;75.72;101688.16;21070023;28;20086;-65
2023/07/10 18:01:47;;;;;;;6.03;2.50;;;;;;;21.62;75.07;101677.81;21071528;28;20106;-65
2023/07/10 18:11:49;;;;;;;5.25;2.75;;;;;;;21.58;75.04;101672.69;21070932;28;20478;-65
2023/07/10 18:21:54;;;;;;;3.63;1.90;;;;;;;21.55;74.40;101664.84;21067419;28;20520;-65
2023/07/10 18:31:56;;;;;;;4.10;2.00;;;;;;;21.54;75.33;101655.00;21068400;28;20051;-65
2023/07/10 18:41:58;;;;;;;5.00;1.95;;;;;;;21.52;75.71;101670.56;21057393;28;20055;-65
2023/07/10 18:52:00;;;;;;;5.53;2.05;;;;;;;21.50;75.60;101650.88;21066642;28;20056;-65
2023/07/10 19:02:01;;;;;;;3.13;1.60;;;;;;;21.48;76.18;101652.03;21066939;28;20060;-65
2023/07/10 19:12:10;;;;;;;2.65;1.38;;;;;;;21.45;76.53;101650.44;21065952;28;20044;-65
2023/07/10 19:22:12;;;;;;;4.50;1.35;;;;;;;21.43;76.32;101647.03;21022317;28;20053;-65
2023/07/10 19:32:19;;;;;;;4.55;1.33;;;;;;;21.38;76.50;101642.03;20964412;28;20056;-65
2023/07/10 19:42:22;;;;;;;1.63;1.17;;;;;;;21.35;76.91;101636.06;21061809;28;20048;-65
2023/07/10 19:52:27;;;;;;;2.95;1.40;;;;;;;21.26;77.12;101611.53;21047261;28;20063;-65
2023/07/10 20:02:29;;;;;;;1.15;0.75;;;;;;;21.32;77.83;101620.94;21078849;28;20051;-65
2023/07/10 20:12:31;;;;;;;2.03;1.13;;;;;;;21.28;77.83;101611.38;21080251;28;20051;-65
2023/07/10 20:22:33;;;;;;;1.80;0.93;;;;;;;21.25;77.46;101598.13;21079313;28;20059;-65
2023/07/10 20:32:34;;;;;;;2.20;1.05;;;;;;;21.24;77.40;101591.88;21070875;28;20127;-65
2023/07/10 20:42:36;;;;;;;1.63;1.10;;;;;;;21.23;77.67;101573.91;21077764;28;20460;-65
2023/07/10 20:52:38;;;;;;;2.35;0.88;;;;;;;21.21;77.64;101575.03;21076713;28;20040;-65
2023/07/10 21:02:40;;;;;;;1.88;1.17;;;;;;;21.19;77.79;101564.34;21075997;28;20544;-65
2023/07/10 21:12:42;;;;;;;1.52;0.80;;;;;;;21.17;78.09;101557.38;21074534;28;20063;-65
2023/07/10 21:22:44;;;;;;;1.63;0.90;;;;;;;21.15;78.32;101554.78;21074933;28;20059;-65
2023/07/10 21:32:46;;;;;;;1.48;0.70;;;;;;;21.14;78.63;101555.78;21060749;28;20507;-65
2023/07/10 21:42:48;;;;;;;1.90;0.80;;;;;;;21.12;78.75;101547.81;21072580;28;20079;-65
2023/07/10 21:52:50;;;;;;;1.85;1.10;;;;;;;21.10;78.90;101540.81;21072288;28;20105;-65
2023/07/10 22:02:52;;;;;;;0.88;0.55;;;;;;;21.09;79.14;101536.41;21070173;28;20052;-65
2023/07/10 22:12:53;;;;;;;1.38;0.80;;;;;;;21.07;79.44;101530.28;21070519;28;20459;-65
2023/07/10 22:22:55;;;;;;;0.60;0.60;;;;;;;21.05;79.83;101537.69;21069739;28;20544;-65
2023/07/10 22:32:57;;;;;;;1.00;0.60;;;;;;;21.01;80.13;101521.75;21048438;28;20418;-65
2023/07/10 22:42:59;;;;;;;1.80;0.75;;;;;;;21.00;80.37;101519.19;21066762;28;20056;-65
2023/07/10 22:53:01;;;;;;;0.95;0.60;;;;;;;20.98;81.00;101508.50;21067569;28;20076;-66
2023/07/10 23:03:05;;;;;;;1.27;0.80;;;;;;;20.95;81.05;101495.25;21067740;28;20048;-65
2023/07/10 23:13:07;;;;;;;1.33;0.70;;;;;;;20.94;81.24;101488.13;21066555;28;20043;-65
2023/07/10 23:23:08;;;;;;;1.52;0.75;;;;;;;20.93;81.12;101481.00;21064970;28;20075;-65
2023/07/10 23:33:11;;;;;;;0.90;0.63;;;;;;;20.92;80.97;101460.34;21065168;28;20533;-65
2023/07/10 23:43:12;;;;;;;0.63;0.50;;;;;;;20.91;80.59;101445.09;21081271;28;20082;-65
2023/07/10 23:53:14;;;;;;;0.70;0.70;;;;;;;20.89;80.08;101436.28;21080519;28;20055;-65
